Aérodrome :
LOGIN :

S'inscrire | Disclaimer

   EN    FR    IT 

 










Légende :    VFR   VFR Marginal   IFR   IFR Intensif   IFR Très Intensif
Visi : 
Plafond : 
>= 8 km
>= 3000ft
5 à 8 km
1000 à 3000 ft
1500m à 5 km
500 à 1000 ft
800 à 1500m
200 à 500 ft
< 800m
< 200 ft
Symboles :   Orages  Brouillard  Fortes neiges  Fortes précipitations  Vent > 20 kt
SIGMETs :   Divers  Orages  Givrage  Turbulence  Onde Orograph.  Cendres Volcan.






- Altitude de l'aérodrome : 17 ft
- Code IATA : CPH


EKCH - København - Kastrup (Copenhagen)

DERNIER METAR :
  • 260050Z 26021KT 9999 -RA FEW013 BKN017 03/01 Q0984 TEMPO 25022G32KT 4000 RA BKN012

METARs EXPIRÉS :
  • 260020Z 26021KT 9999 -RA SCT014 OVC017 03/01 Q0983 TEMPO 25022G32KT 4000 RA BKN012
  • 252350Z 26022KT 9999 -RA FEW012 OVC014 03/01 Q0983 TEMPO 25022G32KT 4000 RA SCT014
  • 252320Z 26021KT 9999 -RA SCT012 OVC014 03/01 Q0983 TEMPO 25022G32KT 4000 RA SCT012
  • 252250Z 25022G32KT 9999 -RA SCT013 OVC016 03/01 Q0983 TEMPO 25022G32KT 4000 RA BKN012
  • 252220Z 26023KT 9999 -RA SCT013 OVC017 03/01 Q0983 RERA TEMPO 25025G35KT 4000 RA

TAF TAF EKCH
Valide du 26 à 00h jusqu'au 27 à 00h UTC


252302Z 2600/2624 24020KT 9999 BKN025
TEMPO 2600/2603 25022G32KT 3000 RASN BKN012 BKN020CB
BECMG 2603/2605 27018G28KT 3000 RASN BKN004 BKN020CB
BECMG 2605/2607 34010KT 9999 NSW BKN020



MET'MAP, la Météo Aéronautique d'un coup d'oeil ! - Copyright ORBIFLY Décembre 2007 - Disclaimer

ORBIFLY MET'MAP TEAM :

Programmation & Développement : Alexandra Zaïnal
Sur une idée originale de : Baudouin d'Aumeries
Assistance à la programmation : Marc-Olivier Méhu
Soutien technique & logistique : Manuel Goepfert

Contact : metmap@orbifly.com




SOURCES & CREDITS :

   NOAA